sensor_id;sensor_type;location;lat;lon;timestamp;P1;durP1;ratioP1;P2;durP2;ratioP2
60700;SDS011;46541;49.894;10.886;2023-02-28T00:00:36;12.07;;;5.30;;
60700;SDS011;46541;49.894;10.886;2023-02-28T00:03:03;9.13;;;5.13;;
60700;SDS011;46541;49.894;10.886;2023-02-28T00:05:30;8.25;;;5.07;;
60700;SDS011;46541;49.894;10.886;2023-02-28T00:07:57;13.07;;;5.68;;
60700;SDS011;46541;49.894;10.886;2023-02-28T00:10:25;8.63;;;5.18;;
60700;SDS011;46541;49.894;10.886;2023-02-28T00:12:55;9.00;;;4.70;;
60700;SDS011;46541;49.894;10.886;2023-02-28T00:15:24;6.72;;;4.40;;
60700;SDS011;46541;49.894;10.886;2023-02-28T00:17:51;9.27;;;4.43;;
60700;SDS011;46541;49.894;10.886;2023-02-28T00:20:18;7.60;;;4.45;;
60700;SDS011;46541;49.894;10.886;2023-02-28T00:22:47;9.02;;;3.92;;
60700;SDS011;46541;49.894;10.886;2023-02-28T00:25:16;8.93;;;4.22;;
60700;SDS011;46541;49.894;10.886;2023-02-28T00:27:45;7.05;;;4.05;;
60700;SDS011;46541;49.894;10.886;2023-02-28T00:30:13;7.70;;;4.47;;
60700;SDS011;46541;49.894;10.886;2023-02-28T00:32:45;5.95;;;3.55;;
60700;SDS011;46541;49.894;10.886;2023-02-28T00:35:11;5.80;;;3.88;;
60700;SDS011;46541;49.894;10.886;2023-02-28T00:37:39;6.60;;;4.13;;
60700;SDS011;46541;49.894;10.886;2023-02-28T00:40:06;8.27;;;4.03;;
60700;SDS011;46541;49.894;10.886;2023-02-28T00:42:34;8.07;;;4.15;;
60700;SDS011;46541;49.894;10.886;2023-02-28T00:45:01;7.40;;;4.65;;
60700;SDS011;46541;49.894;10.886;2023-02-28T00:47:30;6.78;;;3.75;;
60700;SDS011;46541;49.894;10.886;2023-02-28T00:49:59;9.98;;;4.07;;
60700;SDS011;46541;49.894;10.886;2023-02-28T00:52:26;7.30;;;4.10;;
60700;SDS011;46541;49.894;10.886;2023-02-28T00:54:53;8.68;;;3.97;;
60700;SDS011;46541;49.894;10.886;2023-02-28T00:57:20;7.00;;;3.60;;
60700;SDS011;46541;49.894;10.886;2023-02-28T00:59:47;9.38;;;4.03;;
60700;SDS011;46541;49.894;10.886;2023-02-28T01:02:14;8.25;;;4.03;;
60700;SDS011;46541;49.894;10.886;2023-02-28T01:04:40;6.18;;;3.78;;
60700;SDS011;46541;49.894;10.886;2023-02-28T01:07:07;5.53;;;3.30;;
60700;SDS011;46541;49.894;10.886;2023-02-28T01:09:34;6.47;;;3.70;;
60700;SDS011;46541;49.894;10.886;2023-02-28T01:12:01;4.20;;;3.15;;
60700;SDS011;46541;49.894;10.886;2023-02-28T01:14:27;6.93;;;3.42;;
60700;SDS011;46541;49.894;10.886;2023-02-28T01:16:54;6.35;;;3.35;;
60700;SDS011;46541;49.894;10.886;2023-02-28T01:19:21;7.13;;;3.90;;
60700;SDS011;46541;49.894;10.886;2023-02-28T01:21:47;4.82;;;3.40;;
60700;SDS011;46541;49.894;10.886;2023-02-28T01:24:14;5.72;;;3.50;;
60700;SDS011;46541;49.894;10.886;2023-02-28T01:26:41;7.85;;;3.78;;
60700;SDS011;46541;49.894;10.886;2023-02-28T01:29:08;8.02;;;4.07;;
60700;SDS011;46541;49.894;10.886;2023-02-28T01:31:34;10.35;;;4.50;;
60700;SDS011;46541;49.894;10.886;2023-02-28T01:34:01;7.20;;;3.70;;
60700;SDS011;46541;49.894;10.886;2023-02-28T01:36:29;5.68;;;3.63;;
60700;SDS011;46541;49.894;10.886;2023-02-28T01:38:56;6.72;;;3.63;;
60700;SDS011;46541;49.894;10.886;2023-02-28T01:41:23;7.97;;;4.35;;
60700;SDS011;46541;49.894;10.886;2023-02-28T01:46:47;8.23;;;4.18;;
60700;SDS011;46541;49.894;10.886;2023-02-28T01:49:15;8.13;;;3.30;;
60700;SDS011;46541;49.894;10.886;2023-02-28T01:51:44;8.15;;;4.10;;
60700;SDS011;46541;49.894;10.886;2023-02-28T01:54:18;8.30;;;3.85;;
60700;SDS011;46541;49.894;10.886;2023-02-28T01:56:57;5.85;;;2.95;;
60700;SDS011;46541;49.894;10.886;2023-02-28T01:59:33;6.65;;;4.10;;
60700;SDS011;46541;49.894;10.886;2023-02-28T02:02:15;6.00;;;3.60;;
60700;SDS011;46541;49.894;10.886;2023-02-28T02:04:51;6.43;;;4.10;;
60700;SDS011;46541;49.894;10.886;2023-02-28T02:07:40;6.05;;;3.20;;
60700;SDS011;46541;49.894;10.886;2023-02-28T02:10:19;6.15;;;3.60;;
60700;SDS011;46541;49.894;10.886;2023-02-28T02:19:28;7.15;;;3.88;;
60700;SDS011;46541;49.894;10.886;2023-02-28T02:30:55;5.40;;;3.15;;
60700;SDS011;46541;49.894;10.886;2023-02-28T02:39:04;8.45;;;3.90;;
60700;SDS011;46541;49.894;10.886;2023-02-28T02:41:52;7.75;;;3.83;;
60700;SDS011;46541;49.894;10.886;2023-02-28T02:44:24;6.45;;;3.50;;
60700;SDS011;46541;49.894;10.886;2023-02-28T02:46:55;8.65;;;4.15;;
60700;SDS011;46541;49.894;10.886;2023-02-28T02:49:31;5.75;;;3.38;;
60700;SDS011;46541;49.894;10.886;2023-02-28T02:52:01;7.38;;;3.97;;
60700;SDS011;46541;49.894;10.886;2023-02-28T02:54:35;6.30;;;4.22;;
60700;SDS011;46541;49.894;10.886;2023-02-28T02:57:05;9.43;;;4.03;;
60700;SDS011;46541;49.894;10.886;2023-02-28T02:59:38;7.80;;;4.10;;
60700;SDS011;46541;49.894;10.886;2023-02-28T03:02:08;5.28;;;3.20;;
60700;SDS011;46541;49.894;10.886;2023-02-28T03:04:40;5.60;;;3.92;;
60700;SDS011;46541;49.894;10.886;2023-02-28T03:07:11;7.32;;;4.28;;
60700;SDS011;46541;49.894;10.886;2023-02-28T03:09:38;8.30;;;4.03;;
60700;SDS011;46541;49.894;10.886;2023-02-28T03:12:06;10.30;;;3.92;;
60700;SDS011;46541;49.894;10.886;2023-02-28T03:14:48;7.13;;;4.43;;
60700;SDS011;46541;49.894;10.886;2023-02-28T03:28:32;7.18;;;4.50;;
60700;SDS011;46541;49.894;10.886;2023-02-28T03:31:27;8.88;;;4.70;;
60700;SDS011;46541;49.894;10.886;2023-02-28T03:36:47;6.38;;;3.58;;
60700;SDS011;46541;49.894;10.886;2023-02-28T03:39:18;7.20;;;4.03;;
60700;SDS011;46541;49.894;10.886;2023-02-28T03:42:03;7.47;;;3.90;;
60700;SDS011;46541;49.894;10.886;2023-02-28T03:47:06;8.25;;;4.32;;
60700;SDS011;46541;49.894;10.886;2023-02-28T03:49:40;7.45;;;3.83;;
60700;SDS011;46541;49.894;10.886;2023-02-28T03:52:35;6.97;;;4.10;;
60700;SDS011;46541;49.894;10.886;2023-02-28T03:55:16;6.65;;;4.03;;
60700;SDS011;46541;49.894;10.886;2023-02-28T03:57:49;7.18;;;3.95;;
60700;SDS011;46541;49.894;10.886;2023-02-28T04:00:21;9.15;;;3.88;;
60700;SDS011;46541;49.894;10.886;2023-02-28T04:03:04;8.13;;;4.28;;
60700;SDS011;46541;49.894;10.886;2023-02-28T04:05:31;7.30;;;3.97;;
60700;SDS011;46541;49.894;10.886;2023-02-28T04:08:05;8.57;;;4.45;;
60700;SDS011;46541;49.894;10.886;2023-02-28T04:10:33;7.57;;;4.10;;
60700;SDS011;46541;49.894;10.886;2023-02-28T04:13:00;11.88;;;5.18;;
60700;SDS011;46541;49.894;10.886;2023-02-28T04:15:26;6.97;;;3.80;;
60700;SDS011;46541;49.894;10.886;2023-02-28T04:17:53;6.93;;;3.90;;
60700;SDS011;46541;49.894;10.886;2023-02-28T04:20:20;11.20;;;5.25;;
60700;SDS011;46541;49.894;10.886;2023-02-28T04:22:46;8.27;;;4.78;;
60700;SDS011;46541;49.894;10.886;2023-02-28T04:25:13;9.55;;;4.60;;
60700;SDS011;46541;49.894;10.886;2023-02-28T04:27:40;7.72;;;4.32;;
60700;SDS011;46541;49.894;10.886;2023-02-28T04:30:07;7.03;;;4.43;;
60700;SDS011;46541;49.894;10.886;2023-02-28T04:32:34;14.32;;;4.88;;
60700;SDS011;46541;49.894;10.886;2023-02-28T04:35:01;9.85;;;4.32;;
60700;SDS011;46541;49.894;10.886;2023-02-28T04:37:28;7.15;;;4.53;;
60700;SDS011;46541;49.894;10.886;2023-02-28T04:39:55;9.43;;;4.95;;
60700;SDS011;46541;49.894;10.886;2023-02-28T04:42:22;11.65;;;4.07;;
60700;SDS011;46541;49.894;10.886;2023-02-28T04:44:48;11.07;;;6.15;;
60700;SDS011;46541;49.894;10.886;2023-02-28T04:47:15;6.50;;;4.38;;
60700;SDS011;46541;49.894;10.886;2023-02-28T04:49:42;8.40;;;4.88;;
60700;SDS011;46541;49.894;10.886;2023-02-28T04:52:09;9.93;;;5.53;;
60700;SDS011;46541;49.894;10.886;2023-02-28T04:54:36;9.00;;;5.45;;
60700;SDS011;46541;49.894;10.886;2023-02-28T04:57:05;7.40;;;4.47;;
60700;SDS011;46541;49.894;10.886;2023-02-28T04:59:32;7.88;;;4.82;;
60700;SDS011;46541;49.894;10.886;2023-02-28T05:01:59;8.02;;;4.55;;
60700;SDS011;46541;49.894;10.886;2023-02-28T05:04:25;9.00;;;5.05;;
60700;SDS011;46541;49.894;10.886;2023-02-28T05:06:52;8.48;;;4.93;;
60700;SDS011;46541;49.894;10.886;2023-02-28T05:09:19;9.95;;;5.30;;
60700;SDS011;46541;49.894;10.886;2023-02-28T05:11:46;9.32;;;5.13;;
60700;SDS011;46541;49.894;10.886;2023-02-28T05:14:13;9.25;;;5.43;;
60700;SDS011;46541;49.894;10.886;2023-02-28T05:16:40;17.40;;;5.43;;
60700;SDS011;46541;49.894;10.886;2023-02-28T05:19:07;9.65;;;5.10;;
60700;SDS011;46541;49.894;10.886;2023-02-28T05:21:41;8.55;;;5.47;;
60700;SDS011;46541;49.894;10.886;2023-02-28T05:24:15;7.22;;;4.13;;
60700;SDS011;46541;49.894;10.886;2023-02-28T05:26:49;10.02;;;5.40;;
60700;SDS011;46541;49.894;10.886;2023-02-28T05:29:18;10.13;;;4.95;;
60700;SDS011;46541;49.894;10.886;2023-02-28T05:31:45;9.15;;;5.55;;
60700;SDS011;46541;49.894;10.886;2023-02-28T05:34:12;9.52;;;5.53;;
60700;SDS011;46541;49.894;10.886;2023-02-28T05:36:41;11.20;;;5.40;;
60700;SDS011;46541;49.894;10.886;2023-02-28T05:39:08;11.27;;;5.75;;
60700;SDS011;46541;49.894;10.886;2023-02-28T05:41:39;11.45;;;6.05;;
60700;SDS011;46541;49.894;10.886;2023-02-28T05:44:09;14.98;;;6.07;;
60700;SDS011;46541;49.894;10.886;2023-02-28T05:46:37;12.98;;;7.28;;
60700;SDS011;46541;49.894;10.886;2023-02-28T05:49:04;10.20;;;5.75;;
60700;SDS011;46541;49.894;10.886;2023-02-28T05:51:31;14.68;;;6.60;;
60700;SDS011;46541;49.894;10.886;2023-02-28T05:53:59;9.77;;;5.60;;
60700;SDS011;46541;49.894;10.886;2023-02-28T05:56:27;9.95;;;5.47;;
60700;SDS011;46541;49.894;10.886;2023-02-28T05:58:54;13.45;;;7.05;;
60700;SDS011;46541;49.894;10.886;2023-02-28T06:01:32;10.52;;;6.22;;
60700;SDS011;46541;49.894;10.886;2023-02-28T06:04:01;15.77;;;8.35;;
60700;SDS011;46541;49.894;10.886;2023-02-28T06:06:30;13.10;;;6.60;;
60700;SDS011;46541;49.894;10.886;2023-02-28T06:08:57;12.45;;;7.15;;
60700;SDS011;46541;49.894;10.886;2023-02-28T06:11:23;14.38;;;6.97;;
60700;SDS011;46541;49.894;10.886;2023-02-28T06:13:54;12.00;;;7.30;;
60700;SDS011;46541;49.894;10.886;2023-02-28T06:16:29;12.15;;;7.05;;
60700;SDS011;46541;49.894;10.886;2023-02-28T06:18:58;16.08;;;7.63;;
60700;SDS011;46541;49.894;10.886;2023-02-28T06:21:26;14.25;;;6.47;;
60700;SDS011;46541;49.894;10.886;2023-02-28T06:23:56;14.77;;;8.00;;
60700;SDS011;46541;49.894;10.886;2023-02-28T06:26:23;11.13;;;6.80;;
60700;SDS011;46541;49.894;10.886;2023-02-28T06:28:51;12.52;;;6.85;;
60700;SDS011;46541;49.894;10.886;2023-02-28T06:31:18;12.35;;;6.97;;
60700;SDS011;46541;49.894;10.886;2023-02-28T06:33:45;14.57;;;6.20;;
60700;SDS011;46541;49.894;10.886;2023-02-28T06:36:13;11.05;;;6.30;;
60700;SDS011;46541;49.894;10.886;2023-02-28T06:38:41;13.32;;;7.25;;
60700;SDS011;46541;49.894;10.886;2023-02-28T06:41:08;14.98;;;7.70;;
60700;SDS011;46541;49.894;10.886;2023-02-28T06:43:37;16.45;;;7.72;;
60700;SDS011;46541;49.894;10.886;2023-02-28T06:46:06;12.57;;;6.97;;
60700;SDS011;46541;49.894;10.886;2023-02-28T06:48:35;13.23;;;6.80;;
60700;SDS011;46541;49.894;10.886;2023-02-28T06:51:05;12.20;;;6.68;;
60700;SDS011;46541;49.894;10.886;2023-02-28T06:53:37;14.68;;;7.30;;
60700;SDS011;46541;49.894;10.886;2023-02-28T06:56:05;11.88;;;7.35;;
60700;SDS011;46541;49.894;10.886;2023-02-28T06:58:33;12.82;;;7.80;;
60700;SDS011;46541;49.894;10.886;2023-02-28T07:01:01;13.30;;;8.10;;
60700;SDS011;46541;49.894;10.886;2023-02-28T07:03:28;12.75;;;7.80;;
60700;SDS011;46541;49.894;10.886;2023-02-28T07:05:55;13.10;;;6.72;;
60700;SDS011;46541;49.894;10.886;2023-02-28T07:08:25;12.75;;;7.32;;
60700;SDS011;46541;49.894;10.886;2023-02-28T07:10:53;13.77;;;7.28;;
60700;SDS011;46541;49.894;10.886;2023-02-28T07:13:21;14.18;;;7.43;;
60700;SDS011;46541;49.894;10.886;2023-02-28T07:15:55;17.20;;;7.50;;
60700;SDS011;46541;49.894;10.886;2023-02-28T07:18:26;14.20;;;8.20;;
60700;SDS011;46541;49.894;10.886;2023-02-28T07:20:53;12.48;;;7.30;;
60700;SDS011;46541;49.894;10.886;2023-02-28T07:23:21;13.23;;;7.43;;
60700;SDS011;46541;49.894;10.886;2023-02-28T07:25:49;20.42;;;7.65;;
60700;SDS011;46541;49.894;10.886;2023-02-28T07:28:16;14.60;;;6.57;;
60700;SDS011;46541;49.894;10.886;2023-02-28T07:30:43;17.17;;;8.10;;
60700;SDS011;46541;49.894;10.886;2023-02-28T07:33:10;11.40;;;7.68;;
60700;SDS011;46541;49.894;10.886;2023-02-28T07:35:37;12.20;;;6.65;;
60700;SDS011;46541;49.894;10.886;2023-02-28T07:38:03;14.63;;;7.32;;
60700;SDS011;46541;49.894;10.886;2023-02-28T07:40:30;13.27;;;6.70;;
60700;SDS011;46541;49.894;10.886;2023-02-28T07:42:58;12.45;;;7.18;;
60700;SDS011;46541;49.894;10.886;2023-02-28T07:45:26;11.32;;;7.10;;
60700;SDS011;46541;49.894;10.886;2023-02-28T07:47:55;12.98;;;7.18;;
60700;SDS011;46541;49.894;10.886;2023-02-28T07:50:22;70.63;;;31.40;;
60700;SDS011;46541;49.894;10.886;2023-02-28T07:52:52;15.32;;;7.88;;
60700;SDS011;46541;49.894;10.886;2023-02-28T07:55:19;22.00;;;11.95;;
60700;SDS011;46541;49.894;10.886;2023-02-28T07:57:45;25.52;;;14.38;;
60700;SDS011;46541;49.894;10.886;2023-02-28T08:00:12;18.15;;;11.05;;
60700;SDS011;46541;49.894;10.886;2023-02-28T08:02:39;22.58;;;9.07;;
60700;SDS011;46541;49.894;10.886;2023-02-28T08:05:07;13.35;;;7.63;;
60700;SDS011;46541;49.894;10.886;2023-02-28T08:07:35;15.77;;;8.07;;
60700;SDS011;46541;49.894;10.886;2023-02-28T08:10:02;13.10;;;7.85;;
60700;SDS011;46541;49.894;10.886;2023-02-28T08:12:31;13.00;;;7.85;;
60700;SDS011;46541;49.894;10.886;2023-02-28T08:14:58;15.02;;;8.68;;
60700;SDS011;46541;49.894;10.886;2023-02-28T08:17:25;12.93;;;7.70;;
60700;SDS011;46541;49.894;10.886;2023-02-28T08:19:51;16.77;;;9.50;;
60700;SDS011;46541;49.894;10.886;2023-02-28T08:22:18;12.50;;;7.60;;
60700;SDS011;46541;49.894;10.886;2023-02-28T08:24:45;13.18;;;7.32;;
60700;SDS011;46541;49.894;10.886;2023-02-28T08:27:12;12.52;;;6.93;;
60700;SDS011;46541;49.894;10.886;2023-02-28T08:29:39;14.05;;;7.00;;
60700;SDS011;46541;49.894;10.886;2023-02-28T08:32:06;14.93;;;7.57;;
60700;SDS011;46541;49.894;10.886;2023-02-28T08:34:45;16.83;;;7.22;;
60700;SDS011;46541;49.894;10.886;2023-02-28T08:37:13;14.25;;;7.80;;
60700;SDS011;46541;49.894;10.886;2023-02-28T08:39:40;14.05;;;7.15;;
60700;SDS011;46541;49.894;10.886;2023-02-28T08:42:06;11.63;;;6.65;;
60700;SDS011;46541;49.894;10.886;2023-02-28T08:44:33;12.73;;;7.45;;
60700;SDS011;46541;49.894;10.886;2023-02-28T08:47:00;12.57;;;6.78;;
60700;SDS011;46541;49.894;10.886;2023-02-28T08:49:27;11.65;;;6.97;;
60700;SDS011;46541;49.894;10.886;2023-02-28T08:51:54;11.48;;;6.80;;
60700;SDS011;46541;49.894;10.886;2023-02-28T08:54:23;13.40;;;6.88;;
60700;SDS011;46541;49.894;10.886;2023-02-28T08:56:50;15.02;;;7.32;;
60700;SDS011;46541;49.894;10.886;2023-02-28T08:59:17;14.27;;;6.47;;
60700;SDS011;46541;49.894;10.886;2023-02-28T09:01:44;12.50;;;6.88;;
60700;SDS011;46541;49.894;10.886;2023-02-28T09:04:10;14.05;;;6.68;;
60700;SDS011;46541;49.894;10.886;2023-02-28T09:06:42;12.52;;;6.63;;
60700;SDS011;46541;49.894;10.886;2023-02-28T09:09:10;8.40;;;5.80;;
60700;SDS011;46541;49.894;10.886;2023-02-28T09:11:37;13.20;;;7.60;;
60700;SDS011;46541;49.894;10.886;2023-02-28T09:14:04;18.27;;;9.18;;
60700;SDS011;46541;49.894;10.886;2023-02-28T09:16:31;16.40;;;8.07;;
60700;SDS011;46541;49.894;10.886;2023-02-28T09:18:59;17.13;;;8.70;;
60700;SDS011;46541;49.894;10.886;2023-02-28T09:21:26;12.10;;;6.55;;
60700;SDS011;46541;49.894;10.886;2023-02-28T09:23:54;11.20;;;7.03;;
60700;SDS011;46541;49.894;10.886;2023-02-28T09:26:25;14.07;;;6.78;;
60700;SDS011;46541;49.894;10.886;2023-02-28T09:29:03;15.40;;;8.43;;
60700;SDS011;46541;49.894;10.886;2023-02-28T09:31:31;16.75;;;7.78;;
60700;SDS011;46541;49.894;10.886;2023-02-28T09:33:57;14.77;;;7.07;;
60700;SDS011;46541;49.894;10.886;2023-02-28T09:36:26;14.35;;;7.22;;
60700;SDS011;46541;49.894;10.886;2023-02-28T09:39:09;11.63;;;6.57;;
60700;SDS011;46541;49.894;10.886;2023-02-28T09:41:39;16.83;;;8.65;;
60700;SDS011;46541;49.894;10.886;2023-02-28T09:49:56;15.20;;;7.88;;
60700;SDS011;46541;49.894;10.886;2023-02-28T09:52:30;15.63;;;6.85;;
60700;SDS011;46541;49.894;10.886;2023-02-28T09:55:04;14.00;;;7.25;;
60700;SDS011;46541;49.894;10.886;2023-02-28T09:58:03;16.50;;;8.55;;
60700;SDS011;46541;49.894;10.886;2023-02-28T10:03:08;14.13;;;7.10;;
60700;SDS011;46541;49.894;10.886;2023-02-28T10:06:02;14.18;;;8.82;;
60700;SDS011;46541;49.894;10.886;2023-02-28T10:08:43;12.57;;;7.45;;
60700;SDS011;46541;49.894;10.886;2023-02-28T10:11:23;18.67;;;8.10;;
60700;SDS011;46541;49.894;10.886;2023-02-28T10:13:55;12.82;;;6.72;;
60700;SDS011;46541;49.894;10.886;2023-02-28T10:19:05;14.02;;;7.20;;
60700;SDS011;46541;49.894;10.886;2023-02-28T10:21:46;10.95;;;6.75;;
60700;SDS011;46541;49.894;10.886;2023-02-28T10:24:21;12.15;;;6.40;;
60700;SDS011;46541;49.894;10.886;2023-02-28T10:26:54;14.88;;;7.00;;
60700;SDS011;46541;49.894;10.886;2023-02-28T10:29:26;13.13;;;6.97;;
60700;SDS011;46541;49.894;10.886;2023-02-28T10:31:54;9.77;;;6.50;;
60700;SDS011;46541;49.894;10.886;2023-02-28T10:34:20;14.20;;;9.57;;
60700;SDS011;46541;49.894;10.886;2023-02-28T10:36:47;12.20;;;7.28;;
60700;SDS011;46541;49.894;10.886;2023-02-28T10:42:26;19.55;;;8.48;;
60700;SDS011;46541;49.894;10.886;2023-02-28T10:48:02;13.43;;;7.20;;
60700;SDS011;46541;49.894;10.886;2023-02-28T10:50:53;36.97;;;16.23;;
60700;SDS011;46541;49.894;10.886;2023-02-28T10:55:57;12.77;;;7.13;;
60700;SDS011;46541;49.894;10.886;2023-02-28T10:58:47;15.70;;;7.55;;
60700;SDS011;46541;49.894;10.886;2023-02-28T11:01:38;10.77;;;6.45;;
60700;SDS011;46541;49.894;10.886;2023-02-28T11:06:58;15.00;;;9.25;;
60700;SDS011;46541;49.894;10.886;2023-02-28T11:09:33;17.77;;;8.43;;
60700;SDS011;46541;49.894;10.886;2023-02-28T11:12:04;21.60;;;10.27;;
60700;SDS011;46541;49.894;10.886;2023-02-28T11:14:57;15.65;;;8.30;;
60700;SDS011;46541;49.894;10.886;2023-02-28T11:17:24;19.02;;;9.00;;
60700;SDS011;46541;49.894;10.886;2023-02-28T11:19:58;19.42;;;9.20;;
60700;SDS011;46541;49.894;10.886;2023-02-28T11:22:35;19.13;;;9.70;;
60700;SDS011;46541;49.894;10.886;2023-02-28T11:28:00;19.85;;;9.38;;
60700;SDS011;46541;49.894;10.886;2023-02-28T11:30:36;15.73;;;8.73;;
60700;SDS011;46541;49.894;10.886;2023-02-28T11:33:27;17.10;;;9.13;;
60700;SDS011;46541;49.894;10.886;2023-02-28T11:36:08;17.48;;;8.73;;
60700;SDS011;46541;49.894;10.886;2023-02-28T11:38:37;12.98;;;7.78;;
60700;SDS011;46541;49.894;10.886;2023-02-28T11:41:07;76.28;;;31.95;;
60700;SDS011;46541;49.894;10.886;2023-02-28T11:49:18;11.65;;;7.20;;
60700;SDS011;46541;49.894;10.886;2023-02-28T11:52:06;12.10;;;7.50;;
60700;SDS011;46541;49.894;10.886;2023-02-28T11:54:48;13.23;;;7.45;;
60700;SDS011;46541;49.894;10.886;2023-02-28T12:00:44;14.38;;;8.80;;
60700;SDS011;46541;49.894;10.886;2023-02-28T12:06:09;14.48;;;8.60;;
60700;SDS011;46541;49.894;10.886;2023-02-28T12:20:42;11.57;;;6.15;;
60700;SDS011;46541;49.894;10.886;2023-02-28T12:25:43;11.45;;;6.28;;
60700;SDS011;46541;49.894;10.886;2023-02-28T12:28:17;12.07;;;6.70;;
60700;SDS011;46541;49.894;10.886;2023-02-28T12:30:54;18.08;;;9.15;;
60700;SDS011;46541;49.894;10.886;2023-02-28T12:33:49;41.10;;;17.40;;
60700;SDS011;46541;49.894;10.886;2023-02-28T12:36:19;16.70;;;7.47;;
60700;SDS011;46541;49.894;10.886;2023-02-28T12:38:49;10.20;;;6.85;;
60700;SDS011;46541;49.894;10.886;2023-02-28T12:41:42;11.30;;;5.93;;
60700;SDS011;46541;49.894;10.886;2023-02-28T12:44:17;10.77;;;5.75;;
60700;SDS011;46541;49.894;10.886;2023-02-28T12:47:04;9.73;;;6.00;;
60700;SDS011;46541;49.894;10.886;2023-02-28T12:49:39;10.20;;;6.38;;
60700;SDS011;46541;49.894;10.886;2023-02-28T12:55:23;12.52;;;6.30;;
60700;SDS011;46541;49.894;10.886;2023-02-28T13:01:13;10.70;;;6.47;;
60700;SDS011;46541;49.894;10.886;2023-02-28T13:06:51;16.58;;;8.02;;
60700;SDS011;46541;49.894;10.886;2023-02-28T13:09:41;12.00;;;8.25;;
60700;SDS011;46541;49.894;10.886;2023-02-28T13:12:22;9.10;;;6.05;;
60700;SDS011;46541;49.894;10.886;2023-02-28T13:14:50;11.75;;;6.47;;
60700;SDS011;46541;49.894;10.886;2023-02-28T13:17:27;10.35;;;6.18;;
60700;SDS011;46541;49.894;10.886;2023-02-28T13:22:41;10.00;;;6.32;;
60700;SDS011;46541;49.894;10.886;2023-02-28T13:27:50;10.95;;;6.15;;
60700;SDS011;46541;49.894;10.886;2023-02-28T13:38:50;9.15;;;5.70;;
60700;SDS011;46541;49.894;10.886;2023-02-28T13:41:46;12.05;;;6.80;;
60700;SDS011;46541;49.894;10.886;2023-02-28T13:44:20;10.27;;;5.85;;
60700;SDS011;46541;49.894;10.886;2023-02-28T13:51:53;11.55;;;6.82;;
60700;SDS011;46541;49.894;10.886;2023-02-28T13:54:33;12.15;;;5.82;;
60700;SDS011;46541;49.894;10.886;2023-02-28T13:57:12;12.52;;;6.63;;
60700;SDS011;46541;49.894;10.886;2023-02-28T14:05:22;21.90;;;11.35;;
60700;SDS011;46541;49.894;10.886;2023-02-28T14:07:58;11.38;;;7.40;;
60700;SDS011;46541;49.894;10.886;2023-02-28T14:10:31;11.30;;;7.07;;
60700;SDS011;46541;49.894;10.886;2023-02-28T14:13:11;10.38;;;6.47;;
60700;SDS011;46541;49.894;10.886;2023-02-28T14:15:47;14.82;;;8.73;;
60700;SDS011;46541;49.894;10.886;2023-02-28T14:27:34;11.32;;;7.28;;
60700;SDS011;46541;49.894;10.886;2023-02-28T14:36:32;12.45;;;6.40;;
60700;SDS011;46541;49.894;10.886;2023-02-28T14:39:07;12.10;;;6.60;;
60700;SDS011;46541;49.894;10.886;2023-02-28T14:41:46;24.80;;;12.98;;
60700;SDS011;46541;49.894;10.886;2023-02-28T14:46:45;13.43;;;7.68;;
60700;SDS011;46541;49.894;10.886;2023-02-28T14:49:24;13.18;;;7.95;;
60700;SDS011;46541;49.894;10.886;2023-02-28T14:54:43;13.18;;;7.03;;
60700;SDS011;46541;49.894;10.886;2023-02-28T14:57:30;18.08;;;9.32;;
60700;SDS011;46541;49.894;10.886;2023-02-28T15:00:00;14.88;;;8.98;;
60700;SDS011;46541;49.894;10.886;2023-02-28T15:02:30;14.10;;;7.32;;
60700;SDS011;46541;49.894;10.886;2023-02-28T15:05:50;12.30;;;6.97;;
60700;SDS011;46541;49.894;10.886;2023-02-28T15:08:00;13.38;;;7.63;;
60700;SDS011;46541;49.894;10.886;2023-02-28T15:10:32;12.65;;;7.38;;
60700;SDS011;46541;49.894;10.886;2023-02-28T15:13:01;10.15;;;5.57;;
60700;SDS011;46541;49.894;10.886;2023-02-28T15:21:02;14.00;;;7.00;;
60700;SDS011;46541;49.894;10.886;2023-02-28T15:23:34;15.73;;;7.28;;
60700;SDS011;46541;49.894;10.886;2023-02-28T15:26:03;12.07;;;6.43;;
60700;SDS011;46541;49.894;10.886;2023-02-28T15:28:30;13.45;;;7.00;;
60700;SDS011;46541;49.894;10.886;2023-02-28T15:30:59;12.32;;;6.35;;
60700;SDS011;46541;49.894;10.886;2023-02-28T15:33:29;11.65;;;6.63;;
60700;SDS011;46541;49.894;10.886;2023-02-28T15:36:16;12.05;;;6.28;;
60700;SDS011;46541;49.894;10.886;2023-02-28T15:38:49;11.45;;;6.70;;
60700;SDS011;46541;49.894;10.886;2023-02-28T15:41:21;11.38;;;6.88;;
60700;SDS011;46541;49.894;10.886;2023-02-28T15:43:48;14.50;;;6.50;;
60700;SDS011;46541;49.894;10.886;2023-02-28T15:46:15;13.25;;;6.88;;
60700;SDS011;46541;49.894;10.886;2023-02-28T15:48:51;13.15;;;6.25;;
60700;SDS011;46541;49.894;10.886;2023-02-28T15:51:24;12.90;;;7.85;;
60700;SDS011;46541;49.894;10.886;2023-02-28T15:54:07;18.65;;;10.15;;
60700;SDS011;46541;49.894;10.886;2023-02-28T15:56:42;20.92;;;12.63;;
60700;SDS011;46541;49.894;10.886;2023-02-28T15:59:21;24.80;;;14.65;;
60700;SDS011;46541;49.894;10.886;2023-02-28T16:02:38;13.57;;;7.05;;
60700;SDS011;46541;49.894;10.886;2023-02-28T16:04:54;11.73;;;6.28;;
60700;SDS011;46541;49.894;10.886;2023-02-28T16:07:27;14.75;;;8.73;;
60700;SDS011;46541;49.894;10.886;2023-02-28T16:09:55;57.88;;;31.48;;
60700;SDS011;46541;49.894;10.886;2023-02-28T16:12:24;33.65;;;16.40;;
60700;SDS011;46541;49.894;10.886;2023-02-28T16:14:53;56.35;;;27.70;;
60700;SDS011;46541;49.894;10.886;2023-02-28T16:17:25;142.43;;;63.03;;
60700;SDS011;46541;49.894;10.886;2023-02-28T16:19:55;65.57;;;31.80;;
60700;SDS011;46541;49.894;10.886;2023-02-28T16:22:22;43.03;;;20.38;;
60700;SDS011;46541;49.894;10.886;2023-02-28T16:24:49;74.72;;;35.00;;
60700;SDS011;46541;49.894;10.886;2023-02-28T16:27:31;32.00;;;18.05;;
60700;SDS011;46541;49.894;10.886;2023-02-28T16:30:03;19.65;;;10.93;;
60700;SDS011;46541;49.894;10.886;2023-02-28T16:32:32;16.30;;;10.50;;
60700;SDS011;46541;49.894;10.886;2023-02-28T16:35:02;15.93;;;8.60;;
60700;SDS011;46541;49.894;10.886;2023-02-28T16:37:31;12.60;;;7.50;;
60700;SDS011;46541;49.894;10.886;2023-02-28T16:39:58;15.50;;;7.22;;
60700;SDS011;46541;49.894;10.886;2023-02-28T16:42:26;11.48;;;7.32;;
60700;SDS011;46541;49.894;10.886;2023-02-28T16:44:54;14.77;;;7.68;;
60700;SDS011;46541;49.894;10.886;2023-02-28T16:47:21;16.05;;;7.53;;
60700;SDS011;46541;49.894;10.886;2023-02-28T16:49:48;11.80;;;6.82;;
60700;SDS011;46541;49.894;10.886;2023-02-28T16:52:15;12.25;;;7.28;;
60700;SDS011;46541;49.894;10.886;2023-02-28T16:54:42;13.27;;;7.10;;
60700;SDS011;46541;49.894;10.886;2023-02-28T16:57:21;12.30;;;6.55;;
60700;SDS011;46541;49.894;10.886;2023-02-28T16:59:49;12.63;;;7.40;;
60700;SDS011;46541;49.894;10.886;2023-02-28T17:02:19;14.50;;;7.72;;
60700;SDS011;46541;49.894;10.886;2023-02-28T17:04:46;12.05;;;7.13;;
60700;SDS011;46541;49.894;10.886;2023-02-28T17:07:14;13.95;;;7.75;;
60700;SDS011;46541;49.894;10.886;2023-02-28T17:09:44;13.88;;;7.45;;
60700;SDS011;46541;49.894;10.886;2023-02-28T17:12:12;17.55;;;8.88;;
60700;SDS011;46541;49.894;10.886;2023-02-28T17:14:38;15.38;;;8.15;;
60700;SDS011;46541;49.894;10.886;2023-02-28T17:17:06;20.00;;;9.48;;
60700;SDS011;46541;49.894;10.886;2023-02-28T17:19:33;14.18;;;8.35;;
60700;SDS011;46541;49.894;10.886;2023-02-28T17:22:02;25.23;;;11.23;;